sensor_id;sensor_type;location;lat;lon;timestamp;P1;durP1;ratioP1;P2;durP2;ratioP2
20776;SDS011;10548;47.504;8.248;2023-06-24T00:01:16;8.13;;;4.50;;
20776;SDS011;10548;47.504;8.248;2023-06-24T00:03:43;5.57;;;4.60;;
20776;SDS011;10548;47.504;8.248;2023-06-24T00:06:13;6.93;;;5.00;;
20776;SDS011;10548;47.504;8.248;2023-06-24T00:08:45;5.97;;;4.83;;
20776;SDS011;10548;47.504;8.248;2023-06-24T00:11:13;7.87;;;5.13;;
20776;SDS011;10548;47.504;8.248;2023-06-24T00:13:40;8.80;;;5.03;;
20776;SDS011;10548;47.504;8.248;2023-06-24T00:16:09;7.90;;;4.93;;
20776;SDS011;10548;47.504;8.248;2023-06-24T00:18:36;8.63;;;5.20;;
20776;SDS011;10548;47.504;8.248;2023-06-24T00:21:07;7.43;;;4.93;;
20776;SDS011;10548;47.504;8.248;2023-06-24T00:23:34;6.60;;;5.00;;
20776;SDS011;10548;47.504;8.248;2023-06-24T00:26:01;7.60;;;5.27;;
20776;SDS011;10548;47.504;8.248;2023-06-24T00:28:29;12.93;;;5.17;;
20776;SDS011;10548;47.504;8.248;2023-06-24T00:30:56;7.60;;;5.70;;
20776;SDS011;10548;47.504;8.248;2023-06-24T00:33:23;7.03;;;5.23;;
20776;SDS011;10548;47.504;8.248;2023-06-24T00:35:50;9.93;;;5.70;;
20776;SDS011;10548;47.504;8.248;2023-06-24T00:38:17;12.07;;;6.10;;
20776;SDS011;10548;47.504;8.248;2023-06-24T00:40:44;11.37;;;6.33;;
20776;SDS011;10548;47.504;8.248;2023-06-24T00:43:13;8.50;;;6.07;;
20776;SDS011;10548;47.504;8.248;2023-06-24T00:45:40;15.00;;;6.10;;
20776;SDS011;10548;47.504;8.248;2023-06-24T00:48:08;9.30;;;6.03;;
20776;SDS011;10548;47.504;8.248;2023-06-24T00:50:35;13.40;;;6.20;;
20776;SDS011;10548;47.504;8.248;2023-06-24T00:53:03;8.93;;;5.70;;
20776;SDS011;10548;47.504;8.248;2023-06-24T00:55:30;8.83;;;6.27;;
20776;SDS011;10548;47.504;8.248;2023-06-24T00:57:58;9.40;;;5.93;;
20776;SDS011;10548;47.504;8.248;2023-06-24T01:00:29;9.10;;;5.80;;
20776;SDS011;10548;47.504;8.248;2023-06-24T01:02:59;6.77;;;5.20;;
20776;SDS011;10548;47.504;8.248;2023-06-24T01:05:27;8.93;;;6.67;;
20776;SDS011;10548;47.504;8.248;2023-06-24T01:07:55;11.50;;;6.53;;
20776;SDS011;10548;47.504;8.248;2023-06-24T01:10:23;8.97;;;6.57;;
20776;SDS011;10548;47.504;8.248;2023-06-24T01:12:51;8.73;;;6.90;;
20776;SDS011;10548;47.504;8.248;2023-06-24T01:15:18;8.80;;;6.77;;
20776;SDS011;10548;47.504;8.248;2023-06-24T01:18:07;9.43;;;7.23;;
20776;SDS011;10548;47.504;8.248;2023-06-24T01:20:47;14.07;;;6.50;;
20776;SDS011;10548;47.504;8.248;2023-06-24T01:23:50;8.50;;;6.57;;
20776;SDS011;10548;47.504;8.248;2023-06-24T01:30:36;10.67;;;7.13;;
20776;SDS011;10548;47.504;8.248;2023-06-24T01:33:36;9.80;;;6.83;;
20776;SDS011;10548;47.504;8.248;2023-06-24T01:36:20;8.90;;;5.30;;
20776;SDS011;10548;47.504;8.248;2023-06-24T01:38:52;7.27;;;6.20;;
20776;SDS011;10548;47.504;8.248;2023-06-24T01:41:37;6.77;;;5.47;;
20776;SDS011;10548;47.504;8.248;2023-06-24T01:44:29;8.70;;;6.03;;
20776;SDS011;10548;47.504;8.248;2023-06-24T01:46:57;11.07;;;6.80;;
20776;SDS011;10548;47.504;8.248;2023-06-24T01:49:28;7.10;;;5.90;;
20776;SDS011;10548;47.504;8.248;2023-06-24T01:51:57;9.67;;;6.10;;
20776;SDS011;10548;47.504;8.248;2023-06-24T01:54:27;11.30;;;6.90;;
20776;SDS011;10548;47.504;8.248;2023-06-24T01:56:57;9.00;;;6.27;;
20776;SDS011;10548;47.504;8.248;2023-06-24T01:59:28;8.40;;;6.33;;
20776;SDS011;10548;47.504;8.248;2023-06-24T02:01:55;7.90;;;6.40;;
20776;SDS011;10548;47.504;8.248;2023-06-24T02:04:24;11.53;;;6.80;;
20776;SDS011;10548;47.504;8.248;2023-06-24T02:07:01;15.13;;;8.37;;
20776;SDS011;10548;47.504;8.248;2023-06-24T02:09:29;10.20;;;7.63;;
20776;SDS011;10548;47.504;8.248;2023-06-24T02:12:00;10.97;;;7.60;;
20776;SDS011;10548;47.504;8.248;2023-06-24T02:14:30;7.27;;;6.10;;
20776;SDS011;10548;47.504;8.248;2023-06-24T02:16:59;11.00;;;7.03;;
20776;SDS011;10548;47.504;8.248;2023-06-24T02:19:30;8.60;;;7.70;;
20776;SDS011;10548;47.504;8.248;2023-06-24T02:21:58;10.80;;;7.30;;
20776;SDS011;10548;47.504;8.248;2023-06-24T02:24:26;9.33;;;6.67;;
20776;SDS011;10548;47.504;8.248;2023-06-24T02:26:56;9.87;;;6.93;;
20776;SDS011;10548;47.504;8.248;2023-06-24T02:29:27;11.73;;;6.93;;
20776;SDS011;10548;47.504;8.248;2023-06-24T02:31:56;15.47;;;6.50;;
20776;SDS011;10548;47.504;8.248;2023-06-24T02:34:24;8.97;;;7.20;;
20776;SDS011;10548;47.504;8.248;2023-06-24T02:36:51;10.13;;;7.20;;
20776;SDS011;10548;47.504;8.248;2023-06-24T02:39:19;10.23;;;6.73;;
20776;SDS011;10548;47.504;8.248;2023-06-24T02:41:46;10.30;;;7.17;;
20776;SDS011;10548;47.504;8.248;2023-06-24T02:44:16;9.50;;;7.23;;
20776;SDS011;10548;47.504;8.248;2023-06-24T02:46:43;12.47;;;8.07;;
20776;SDS011;10548;47.504;8.248;2023-06-24T02:49:13;8.93;;;7.33;;
20776;SDS011;10548;47.504;8.248;2023-06-24T02:51:42;9.23;;;7.13;;
20776;SDS011;10548;47.504;8.248;2023-06-24T02:54:09;9.93;;;7.13;;
20776;SDS011;10548;47.504;8.248;2023-06-24T02:57:01;10.43;;;7.33;;
20776;SDS011;10548;47.504;8.248;2023-06-24T02:59:49;8.70;;;6.70;;
20776;SDS011;10548;47.504;8.248;2023-06-24T03:02:16;11.73;;;7.47;;
20776;SDS011;10548;47.504;8.248;2023-06-24T03:04:44;11.97;;;8.10;;
20776;SDS011;10548;47.504;8.248;2023-06-24T03:07:12;7.87;;;6.90;;
20776;SDS011;10548;47.504;8.248;2023-06-24T03:09:42;12.83;;;7.57;;
20776;SDS011;10548;47.504;8.248;2023-06-24T03:12:09;9.60;;;7.53;;
20776;SDS011;10548;47.504;8.248;2023-06-24T03:14:43;11.53;;;7.73;;
20776;SDS011;10548;47.504;8.248;2023-06-24T03:17:10;9.80;;;7.50;;
20776;SDS011;10548;47.504;8.248;2023-06-24T03:19:38;7.93;;;7.03;;
20776;SDS011;10548;47.504;8.248;2023-06-24T03:22:06;12.07;;;8.10;;
20776;SDS011;10548;47.504;8.248;2023-06-24T03:24:33;11.97;;;8.43;;
20776;SDS011;10548;47.504;8.248;2023-06-24T03:27:00;9.50;;;7.67;;
20776;SDS011;10548;47.504;8.248;2023-06-24T03:29:36;10.93;;;7.50;;
20776;SDS011;10548;47.504;8.248;2023-06-24T03:32:10;14.13;;;8.07;;
20776;SDS011;10548;47.504;8.248;2023-06-24T03:34:38;11.60;;;7.83;;
20776;SDS011;10548;47.504;8.248;2023-06-24T03:37:07;13.77;;;7.47;;
20776;SDS011;10548;47.504;8.248;2023-06-24T03:39:38;10.38;;;8.10;;
20776;SDS011;10548;47.504;8.248;2023-06-24T03:42:05;9.30;;;7.20;;
20776;SDS011;10548;47.504;8.248;2023-06-24T03:44:32;9.37;;;7.13;;
20776;SDS011;10548;47.504;8.248;2023-06-24T03:47:00;14.07;;;7.20;;
20776;SDS011;10548;47.504;8.248;2023-06-24T03:49:28;8.23;;;6.50;;
20776;SDS011;10548;47.504;8.248;2023-06-24T03:51:55;9.93;;;7.20;;
20776;SDS011;10548;47.504;8.248;2023-06-24T03:54:23;10.30;;;7.37;;
20776;SDS011;10548;47.504;8.248;2023-06-24T03:56:50;8.97;;;7.37;;
20776;SDS011;10548;47.504;8.248;2023-06-24T03:59:17;10.83;;;7.43;;
20776;SDS011;10548;47.504;8.248;2023-06-24T04:01:44;9.37;;;7.17;;
20776;SDS011;10548;47.504;8.248;2023-06-24T04:04:12;8.53;;;6.03;;
20776;SDS011;10548;47.504;8.248;2023-06-24T04:06:48;9.07;;;7.20;;
20776;SDS011;10548;47.504;8.248;2023-06-24T04:09:15;9.07;;;7.17;;
20776;SDS011;10548;47.504;8.248;2023-06-24T04:11:43;11.63;;;7.83;;
20776;SDS011;10548;47.504;8.248;2023-06-24T04:14:10;8.77;;;7.20;;
20776;SDS011;10548;47.504;8.248;2023-06-24T04:16:37;9.47;;;7.23;;
20776;SDS011;10548;47.504;8.248;2023-06-24T04:19:04;11.53;;;6.73;;
20776;SDS011;10548;47.504;8.248;2023-06-24T04:21:32;8.83;;;6.77;;
20776;SDS011;10548;47.504;8.248;2023-06-24T04:23:59;10.50;;;7.00;;
20776;SDS011;10548;47.504;8.248;2023-06-24T04:26:26;10.07;;;6.83;;
20776;SDS011;10548;47.504;8.248;2023-06-24T04:28:54;8.20;;;6.70;;
20776;SDS011;10548;47.504;8.248;2023-06-24T04:31:21;9.80;;;7.53;;
20776;SDS011;10548;47.504;8.248;2023-06-24T04:33:49;10.97;;;6.87;;
20776;SDS011;10548;47.504;8.248;2023-06-24T04:36:16;7.80;;;6.60;;
20776;SDS011;10548;47.504;8.248;2023-06-24T04:38:43;10.43;;;7.33;;
20776;SDS011;10548;47.504;8.248;2023-06-24T04:41:10;9.73;;;6.97;;
20776;SDS011;10548;47.504;8.248;2023-06-24T04:43:37;9.50;;;7.53;;
20776;SDS011;10548;47.504;8.248;2023-06-24T04:46:04;8.90;;;7.67;;
20776;SDS011;10548;47.504;8.248;2023-06-24T04:48:31;8.10;;;7.03;;
20776;SDS011;10548;47.504;8.248;2023-06-24T04:50:58;8.63;;;7.23;;
20776;SDS011;10548;47.504;8.248;2023-06-24T04:53:26;9.33;;;7.10;;
20776;SDS011;10548;47.504;8.248;2023-06-24T04:55:53;10.03;;;7.30;;
20776;SDS011;10548;47.504;8.248;2023-06-24T04:58:20;8.00;;;6.70;;
20776;SDS011;10548;47.504;8.248;2023-06-24T05:00:47;11.60;;;7.70;;
20776;SDS011;10548;47.504;8.248;2023-06-24T05:03:14;9.50;;;7.00;;
20776;SDS011;10548;47.504;8.248;2023-06-24T05:05:41;7.67;;;6.53;;
20776;SDS011;10548;47.504;8.248;2023-06-24T05:08:09;13.03;;;6.93;;
20776;SDS011;10548;47.504;8.248;2023-06-24T05:10:36;11.93;;;8.10;;
20776;SDS011;10548;47.504;8.248;2023-06-24T05:13:03;10.67;;;8.70;;
20776;SDS011;10548;47.504;8.248;2023-06-24T05:15:30;12.90;;;7.77;;
20776;SDS011;10548;47.504;8.248;2023-06-24T05:17:58;9.70;;;7.70;;
20776;SDS011;10548;47.504;8.248;2023-06-24T05:20:25;10.47;;;8.20;;
20776;SDS011;10548;47.504;8.248;2023-06-24T05:22:52;12.57;;;7.63;;
20776;SDS011;10548;47.504;8.248;2023-06-24T05:25:20;9.40;;;7.17;;
20776;SDS011;10548;47.504;8.248;2023-06-24T05:27:47;16.53;;;7.00;;
20776;SDS011;10548;47.504;8.248;2023-06-24T05:30:14;10.40;;;7.40;;
20776;SDS011;10548;47.504;8.248;2023-06-24T05:32:41;8.83;;;6.87;;
20776;SDS011;10548;47.504;8.248;2023-06-24T05:35:08;10.47;;;7.07;;
20776;SDS011;10548;47.504;8.248;2023-06-24T05:37:35;8.90;;;6.93;;
20776;SDS011;10548;47.504;8.248;2023-06-24T05:40:03;10.23;;;7.17;;
20776;SDS011;10548;47.504;8.248;2023-06-24T05:42:31;12.73;;;6.77;;
20776;SDS011;10548;47.504;8.248;2023-06-24T05:45:00;12.60;;;7.53;;
20776;SDS011;10548;47.504;8.248;2023-06-24T05:47:27;11.00;;;6.77;;
20776;SDS011;10548;47.504;8.248;2023-06-24T05:49:54;9.57;;;7.13;;
20776;SDS011;10548;47.504;8.248;2023-06-24T05:52:21;14.23;;;7.70;;
20776;SDS011;10548;47.504;8.248;2023-06-24T05:54:48;9.07;;;6.50;;
20776;SDS011;10548;47.504;8.248;2023-06-24T05:57:15;9.77;;;6.90;;
20776;SDS011;10548;47.504;8.248;2023-06-24T05:59:43;8.63;;;6.90;;
20776;SDS011;10548;47.504;8.248;2023-06-24T06:02:10;9.83;;;7.30;;
20776;SDS011;10548;47.504;8.248;2023-06-24T06:04:38;9.17;;;7.00;;
20776;SDS011;10548;47.504;8.248;2023-06-24T06:07:05;10.60;;;7.63;;
20776;SDS011;10548;47.504;8.248;2023-06-24T06:09:32;11.80;;;7.37;;
20776;SDS011;10548;47.504;8.248;2023-06-24T06:12:00;10.47;;;6.70;;
20776;SDS011;10548;47.504;8.248;2023-06-24T06:14:27;11.57;;;7.20;;
20776;SDS011;10548;47.504;8.248;2023-06-24T06:16:54;8.53;;;6.50;;
20776;SDS011;10548;47.504;8.248;2023-06-24T06:19:21;12.10;;;6.27;;
20776;SDS011;10548;47.504;8.248;2023-06-24T06:21:51;8.83;;;6.80;;
20776;SDS011;10548;47.504;8.248;2023-06-24T06:24:18;9.80;;;6.40;;
20776;SDS011;10548;47.504;8.248;2023-06-24T06:26:45;7.73;;;6.67;;
20776;SDS011;10548;47.504;8.248;2023-06-24T06:29:13;10.27;;;6.40;;
20776;SDS011;10548;47.504;8.248;2023-06-24T06:31:40;8.30;;;6.33;;
20776;SDS011;10548;47.504;8.248;2023-06-24T06:34:07;8.80;;;7.10;;
20776;SDS011;10548;47.504;8.248;2023-06-24T06:36:35;9.27;;;6.50;;
20776;SDS011;10548;47.504;8.248;2023-06-24T06:39:02;7.63;;;6.37;;
20776;SDS011;10548;47.504;8.248;2023-06-24T06:41:29;7.93;;;5.80;;
20776;SDS011;10548;47.504;8.248;2023-06-24T06:43:56;7.27;;;5.53;;
20776;SDS011;10548;47.504;8.248;2023-06-24T06:46:23;7.50;;;5.00;;
20776;SDS011;10548;47.504;8.248;2023-06-24T06:48:51;5.77;;;4.30;;
20776;SDS011;10548;47.504;8.248;2023-06-24T06:51:18;5.33;;;4.23;;
20776;SDS011;10548;47.504;8.248;2023-06-24T06:53:45;4.87;;;4.30;;
20776;SDS011;10548;47.504;8.248;2023-06-24T06:56:18;7.83;;;4.63;;
20776;SDS011;10548;47.504;8.248;2023-06-24T06:58:49;4.53;;;4.00;;
20776;SDS011;10548;47.504;8.248;2023-06-24T07:01:17;7.17;;;4.77;;
20776;SDS011;10548;47.504;8.248;2023-06-24T07:03:45;7.47;;;4.37;;
20776;SDS011;10548;47.504;8.248;2023-06-24T07:06:12;7.00;;;4.50;;
20776;SDS011;10548;47.504;8.248;2023-06-24T07:08:39;9.27;;;5.23;;
20776;SDS011;10548;47.504;8.248;2023-06-24T07:11:06;5.70;;;4.40;;
20776;SDS011;10548;47.504;8.248;2023-06-24T07:13:33;5.67;;;4.60;;
20776;SDS011;10548;47.504;8.248;2023-06-24T07:16:00;5.80;;;4.33;;
20776;SDS011;10548;47.504;8.248;2023-06-24T07:18:28;5.97;;;4.50;;
20776;SDS011;10548;47.504;8.248;2023-06-24T07:20:56;6.87;;;4.33;;
20776;SDS011;10548;47.504;8.248;2023-06-24T07:23:26;7.30;;;4.50;;
20776;SDS011;10548;47.504;8.248;2023-06-24T07:25:53;5.40;;;4.53;;
20776;SDS011;10548;47.504;8.248;2023-06-24T07:28:20;8.33;;;4.77;;
20776;SDS011;10548;47.504;8.248;2023-06-24T07:30:47;5.83;;;4.20;;
20776;SDS011;10548;47.504;8.248;2023-06-24T07:33:14;6.13;;;4.27;;
20776;SDS011;10548;47.504;8.248;2023-06-24T07:35:42;8.17;;;4.27;;
20776;SDS011;10548;47.504;8.248;2023-06-24T07:38:09;7.93;;;4.83;;
20776;SDS011;10548;47.504;8.248;2023-06-24T07:40:36;5.60;;;4.20;;
20776;SDS011;10548;47.504;8.248;2023-06-24T07:43:03;7.80;;;4.70;;
20776;SDS011;10548;47.504;8.248;2023-06-24T07:45:30;6.70;;;4.73;;
20776;SDS011;10548;47.504;8.248;2023-06-24T07:47:58;9.70;;;5.03;;
20776;SDS011;10548;47.504;8.248;2023-06-24T07:50:25;6.10;;;4.23;;
20776;SDS011;10548;47.504;8.248;2023-06-24T07:52:52;5.43;;;4.20;;
20776;SDS011;10548;47.504;8.248;2023-06-24T07:55:19;5.57;;;4.37;;
20776;SDS011;10548;47.504;8.248;2023-06-24T07:57:46;4.90;;;4.37;;
20776;SDS011;10548;47.504;8.248;2023-06-24T08:00:14;6.93;;;4.83;;
20776;SDS011;10548;47.504;8.248;2023-06-24T08:02:42;5.83;;;4.50;;
20776;SDS011;10548;47.504;8.248;2023-06-24T08:05:09;6.83;;;5.10;;
20776;SDS011;10548;47.504;8.248;2023-06-24T08:07:37;6.73;;;4.37;;
20776;SDS011;10548;47.504;8.248;2023-06-24T08:10:04;6.80;;;3.90;;
20776;SDS011;10548;47.504;8.248;2023-06-24T08:12:32;5.10;;;4.47;;
20776;SDS011;10548;47.504;8.248;2023-06-24T08:14:59;6.80;;;3.90;;
20776;SDS011;10548;47.504;8.248;2023-06-24T08:17:26;6.53;;;4.97;;
20776;SDS011;10548;47.504;8.248;2023-06-24T08:19:53;7.30;;;4.23;;
20776;SDS011;10548;47.504;8.248;2023-06-24T08:22:20;5.37;;;4.00;;
20776;SDS011;10548;47.504;8.248;2023-06-24T08:24:47;8.17;;;4.50;;
20776;SDS011;10548;47.504;8.248;2023-06-24T08:27:15;7.23;;;4.33;;
20776;SDS011;10548;47.504;8.248;2023-06-24T08:29:42;7.27;;;4.33;;
20776;SDS011;10548;47.504;8.248;2023-06-24T08:32:09;6.40;;;4.10;;
20776;SDS011;10548;47.504;8.248;2023-06-24T08:34:36;7.37;;;4.43;;
20776;SDS011;10548;47.504;8.248;2023-06-24T08:37:03;7.57;;;3.60;;
20776;SDS011;10548;47.504;8.248;2023-06-24T08:39:30;7.10;;;4.20;;
20776;SDS011;10548;47.504;8.248;2023-06-24T08:41:57;5.10;;;4.20;;
20776;SDS011;10548;47.504;8.248;2023-06-24T08:44:25;5.33;;;4.30;;
20776;SDS011;10548;47.504;8.248;2023-06-24T08:46:52;8.47;;;4.00;;
20776;SDS011;10548;47.504;8.248;2023-06-24T08:49:27;4.73;;;3.70;;
20776;SDS011;10548;47.504;8.248;2023-06-24T08:51:59;7.37;;;4.63;;
20776;SDS011;10548;47.504;8.248;2023-06-24T08:54:45;7.30;;;4.30;;
20776;SDS011;10548;47.504;8.248;2023-06-24T08:57:16;5.37;;;4.37;;
20776;SDS011;10548;47.504;8.248;2023-06-24T08:59:45;7.80;;;4.20;;
20776;SDS011;10548;47.504;8.248;2023-06-24T09:02:12;7.13;;;4.43;;
20776;SDS011;10548;47.504;8.248;2023-06-24T09:04:40;7.67;;;4.60;;
20776;SDS011;10548;47.504;8.248;2023-06-24T09:07:08;7.07;;;4.60;;
20776;SDS011;10548;47.504;8.248;2023-06-24T09:09:42;8.03;;;4.37;;
20776;SDS011;10548;47.504;8.248;2023-06-24T09:12:13;9.40;;;4.00;;
20776;SDS011;10548;47.504;8.248;2023-06-24T09:14:42;8.50;;;4.87;;
20776;SDS011;10548;47.504;8.248;2023-06-24T09:17:15;10.30;;;4.20;;
20776;SDS011;10548;47.504;8.248;2023-06-24T09:19:42;7.23;;;4.23;;
20776;SDS011;10548;47.504;8.248;2023-06-24T09:22:10;5.77;;;4.40;;
20776;SDS011;10548;47.504;8.248;2023-06-24T09:24:43;7.33;;;5.03;;
20776;SDS011;10548;47.504;8.248;2023-06-24T09:27:16;8.20;;;4.90;;
20776;SDS011;10548;47.504;8.248;2023-06-24T09:29:48;6.00;;;4.40;;
20776;SDS011;10548;47.504;8.248;2023-06-24T09:32:15;5.93;;;4.70;;
20776;SDS011;10548;47.504;8.248;2023-06-24T09:34:43;7.50;;;4.33;;
20776;SDS011;10548;47.504;8.248;2023-06-24T09:37:10;7.23;;;4.40;;
20776;SDS011;10548;47.504;8.248;2023-06-24T09:39:47;6.50;;;4.97;;
20776;SDS011;10548;47.504;8.248;2023-06-24T09:42:14;7.47;;;4.30;;
20776;SDS011;10548;47.504;8.248;2023-06-24T09:44:41;5.33;;;4.23;;
20776;SDS011;10548;47.504;8.248;2023-06-24T09:47:09;4.70;;;4.10;;
20776;SDS011;10548;47.504;8.248;2023-06-24T09:49:36;6.27;;;4.40;;
20776;SDS011;10548;47.504;8.248;2023-06-24T09:52:03;4.47;;;3.63;;
20776;SDS011;10548;47.504;8.248;2023-06-24T09:54:32;5.20;;;4.00;;
20776;SDS011;10548;47.504;8.248;2023-06-24T09:57:03;4.50;;;3.60;;
20776;SDS011;10548;47.504;8.248;2023-06-24T09:59:31;7.87;;;4.10;;
20776;SDS011;10548;47.504;8.248;2023-06-24T10:02:00;4.57;;;4.00;;
20776;SDS011;10548;47.504;8.248;2023-06-24T10:04:29;5.00;;;3.87;;
20776;SDS011;10548;47.504;8.248;2023-06-24T10:06:58;4.60;;;3.90;;
20776;SDS011;10548;47.504;8.248;2023-06-24T10:09:26;4.60;;;3.80;;
20776;SDS011;10548;47.504;8.248;2023-06-24T10:11:53;5.57;;;4.53;;
20776;SDS011;10548;47.504;8.248;2023-06-24T10:14:20;6.90;;;4.00;;
20776;SDS011;10548;47.504;8.248;2023-06-24T10:16:51;4.10;;;3.70;;
20776;SDS011;10548;47.504;8.248;2023-06-24T10:19:21;4.30;;;3.60;;
20776;SDS011;10548;47.504;8.248;2023-06-24T10:21:51;4.97;;;3.50;;
20776;SDS011;10548;47.504;8.248;2023-06-24T10:24:27;4.53;;;3.70;;
20776;SDS011;10548;47.504;8.248;2023-06-24T10:27:06;5.10;;;3.60;;
20776;SDS011;10548;47.504;8.248;2023-06-24T10:29:44;10.33;;;4.03;;
20776;SDS011;10548;47.504;8.248;2023-06-24T10:32:12;4.97;;;4.00;;
20776;SDS011;10548;47.504;8.248;2023-06-24T10:34:43;4.27;;;3.67;;
20776;SDS011;10548;47.504;8.248;2023-06-24T10:37:19;5.30;;;3.70;;
20776;SDS011;10548;47.504;8.248;2023-06-24T10:39:51;8.97;;;3.40;;
20776;SDS011;10548;47.504;8.248;2023-06-24T10:42:30;4.60;;;3.70;;
20776;SDS011;10548;47.504;8.248;2023-06-24T10:45:19;3.53;;;3.13;;
20776;SDS011;10548;47.504;8.248;2023-06-24T10:47:49;5.80;;;3.40;;
20776;SDS011;10548;47.504;8.248;2023-06-24T10:50:20;4.43;;;3.30;;
20776;SDS011;10548;47.504;8.248;2023-06-24T10:52:48;4.57;;;3.27;;
20776;SDS011;10548;47.504;8.248;2023-06-24T10:55:20;4.30;;;3.37;;
20776;SDS011;10548;47.504;8.248;2023-06-24T10:57:49;4.90;;;3.07;;
20776;SDS011;10548;47.504;8.248;2023-06-24T11:00:16;4.33;;;3.30;;
20776;SDS011;10548;47.504;8.248;2023-06-24T11:02:43;7.73;;;3.33;;
20776;SDS011;10548;47.504;8.248;2023-06-24T11:05:11;4.90;;;3.40;;
20776;SDS011;10548;47.504;8.248;2023-06-24T11:07:38;4.20;;;3.00;;
20776;SDS011;10548;47.504;8.248;2023-06-24T11:10:15;5.40;;;3.23;;
20776;SDS011;10548;47.504;8.248;2023-06-24T11:12:43;4.50;;;3.40;;
20776;SDS011;10548;47.504;8.248;2023-06-24T11:15:11;7.37;;;3.57;;
20776;SDS011;10548;47.504;8.248;2023-06-24T11:17:39;4.77;;;3.30;;
20776;SDS011;10548;47.504;8.248;2023-06-24T11:20:08;3.67;;;3.37;;
20776;SDS011;10548;47.504;8.248;2023-06-24T11:22:36;3.77;;;3.37;;
20776;SDS011;10548;47.504;8.248;2023-06-24T11:25:04;3.87;;;3.27;;
20776;SDS011;10548;47.504;8.248;2023-06-24T11:27:31;4.07;;;3.53;;
20776;SDS011;10548;47.504;8.248;2023-06-24T11:29:59;5.83;;;3.77;;
20776;SDS011;10548;47.504;8.248;2023-06-24T11:32:37;4.30;;;3.37;;
20776;SDS011;10548;47.504;8.248;2023-06-24T11:35:09;7.73;;;3.80;;
20776;SDS011;10548;47.504;8.248;2023-06-24T11:37:40;5.73;;;3.67;;
20776;SDS011;10548;47.504;8.248;2023-06-24T11:40:10;4.80;;;3.70;;
20776;SDS011;10548;47.504;8.248;2023-06-24T11:42:38;5.50;;;3.60;;
20776;SDS011;10548;47.504;8.248;2023-06-24T11:45:07;4.33;;;3.37;;
20776;SDS011;10548;47.504;8.248;2023-06-24T11:47:39;4.10;;;3.63;;
20776;SDS011;10548;47.504;8.248;2023-06-24T11:50:07;4.40;;;3.43;;
20776;SDS011;10548;47.504;8.248;2023-06-24T11:52:42;5.23;;;4.07;;
20776;SDS011;10548;47.504;8.248;2023-06-24T11:55:21;5.20;;;3.37;;
20776;SDS011;10548;47.504;8.248;2023-06-24T12:00:45;5.97;;;4.00;;
20776;SDS011;10548;47.504;8.248;2023-06-24T12:03:13;4.57;;;3.40;;
20776;SDS011;10548;47.504;8.248;2023-06-24T12:05:41;5.97;;;4.13;;
20776;SDS011;10548;47.504;8.248;2023-06-24T12:08:12;4.53;;;3.40;;
20776;SDS011;10548;47.504;8.248;2023-06-24T12:10:42;9.70;;;3.73;;
20776;SDS011;10548;47.504;8.248;2023-06-24T12:13:10;4.67;;;3.80;;
20776;SDS011;10548;47.504;8.248;2023-06-24T12:15:38;5.40;;;4.37;;
20776;SDS011;10548;47.504;8.248;2023-06-24T12:18:05;5.03;;;4.13;;
20776;SDS011;10548;47.504;8.248;2023-06-24T12:20:32;5.57;;;3.80;;
20776;SDS011;10548;47.504;8.248;2023-06-24T12:23:04;6.87;;;3.80;;
20776;SDS011;10548;47.504;8.248;2023-06-24T12:25:32;3.57;;;3.20;;
20776;SDS011;10548;47.504;8.248;2023-06-24T12:27:59;4.93;;;3.53;;
20776;SDS011;10548;47.504;8.248;2023-06-24T12:30:26;4.60;;;3.37;;
20776;SDS011;10548;47.504;8.248;2023-06-24T12:32:54;5.40;;;3.63;;
20776;SDS011;10548;47.504;8.248;2023-06-24T12:35:22;4.20;;;3.53;;
20776;SDS011;10548;47.504;8.248;2023-06-24T12:37:52;5.07;;;3.60;;
20776;SDS011;10548;47.504;8.248;2023-06-24T12:40:19;8.27;;;4.00;;
20776;SDS011;10548;47.504;8.248;2023-06-24T12:42:47;4.77;;;3.57;;
20776;SDS011;10548;47.504;8.248;2023-06-24T12:45:14;4.50;;;3.27;;
20776;SDS011;10548;47.504;8.248;2023-06-24T12:47:41;6.67;;;3.80;;
20776;SDS011;10548;47.504;8.248;2023-06-24T12:50:08;4.13;;;3.70;;
20776;SDS011;10548;47.504;8.248;2023-06-24T12:52:36;5.50;;;3.50;;
20776;SDS011;10548;47.504;8.248;2023-06-24T12:55:05;4.37;;;3.67;;
20776;SDS011;10548;47.504;8.248;2023-06-24T12:57:34;5.20;;;3.97;;
20776;SDS011;10548;47.504;8.248;2023-06-24T13:00:02;3.77;;;3.20;;
20776;SDS011;10548;47.504;8.248;2023-06-24T13:02:32;4.97;;;3.17;;
20776;SDS011;10548;47.504;8.248;2023-06-24T13:05:00;4.80;;;3.30;;
20776;SDS011;10548;47.504;8.248;2023-06-24T13:07:27;4.77;;;3.43;;
20776;SDS011;10548;47.504;8.248;2023-06-24T13:09:54;4.83;;;4.13;;
20776;SDS011;10548;47.504;8.248;2023-06-24T13:12:21;4.13;;;3.43;;
20776;SDS011;10548;47.504;8.248;2023-06-24T13:14:48;4.30;;;3.83;;
20776;SDS011;10548;47.504;8.248;2023-06-24T13:17:16;8.37;;;3.60;;
20776;SDS011;10548;47.504;8.248;2023-06-24T13:19:43;4.00;;;3.17;;
20776;SDS011;10548;47.504;8.248;2023-06-24T13:22:10;5.37;;;3.70;;
20776;SDS011;10548;47.504;8.248;2023-06-24T13:24:37;4.30;;;3.40;;
20776;SDS011;10548;47.504;8.248;2023-06-24T13:27:05;3.87;;;3.37;;
20776;SDS011;10548;47.504;8.248;2023-06-24T13:29:32;4.40;;;3.50;;
20776;SDS011;10548;47.504;8.248;2023-06-24T13:31:59;5.37;;;3.60;;
20776;SDS011;10548;47.504;8.248;2023-06-24T13:34:26;6.03;;;3.13;;
20776;SDS011;10548;47.504;8.248;2023-06-24T13:36:54;4.47;;;3.83;;
20776;SDS011;10548;47.504;8.248;2023-06-24T13:39:21;8.53;;;3.20;;
20776;SDS011;10548;47.504;8.248;2023-06-24T13:41:51;4.00;;;3.27;;
20776;SDS011;10548;47.504;8.248;2023-06-24T13:44:19;3.90;;;3.40;;
20776;SDS011;10548;47.504;8.248;2023-06-24T13:46:46;6.33;;;3.50;;
20776;SDS011;10548;47.504;8.248;2023-06-24T13:49:13;6.13;;;3.80;;
20776;SDS011;10548;47.504;8.248;2023-06-24T13:51:40;4.13;;;3.13;;
20776;SDS011;10548;47.504;8.248;2023-06-24T13:54:08;5.70;;;3.80;;
20776;SDS011;10548;47.504;8.248;2023-06-24T13:56:35;9.30;;;3.90;;
20776;SDS011;10548;47.504;8.248;2023-06-24T13:59:03;4.53;;;3.37;;
20776;SDS011;10548;47.504;8.248;2023-06-24T14:01:30;3.90;;;3.10;;
20776;SDS011;10548;47.504;8.248;2023-06-24T14:03:58;6.70;;;3.17;;
20776;SDS011;10548;47.504;8.248;2023-06-24T14:06:25;4.27;;;3.47;;
20776;SDS011;10548;47.504;8.248;2023-06-24T14:08:52;8.87;;;3.70;;
20776;SDS011;10548;47.504;8.248;2023-06-24T14:11:20;4.47;;;3.00;;
20776;SDS011;10548;47.504;8.248;2023-06-24T14:13:47;3.83;;;3.43;;
20776;SDS011;10548;47.504;8.248;2023-06-24T14:16:14;3.30;;;3.00;;
20776;SDS011;10548;47.504;8.248;2023-06-24T14:18:42;3.80;;;3.10;;
20776;SDS011;10548;47.504;8.248;2023-06-24T14:21:10;4.47;;;3.33;;
20776;SDS011;10548;47.504;8.248;2023-06-24T14:23:37;5.53;;;3.20;;
20776;SDS011;10548;47.504;8.248;2023-06-24T14:26:04;4.87;;;3.33;;
20776;SDS011;10548;47.504;8.248;2023-06-24T14:28:31;4.80;;;3.20;;
20776;SDS011;10548;47.504;8.248;2023-06-24T14:30:58;4.70;;;3.37;;
20776;SDS011;10548;47.504;8.248;2023-06-24T14:33:25;5.20;;;3.43;;
20776;SDS011;10548;47.504;8.248;2023-06-24T14:35:52;4.00;;;3.53;;
20776;SDS011;10548;47.504;8.248;2023-06-24T14:38:20;4.43;;;3.40;;
20776;SDS011;10548;47.504;8.248;2023-06-24T14:40:47;4.13;;;3.33;;
20776;SDS011;10548;47.504;8.248;2023-06-24T14:43:14;4.33;;;3.03;;
20776;SDS011;10548;47.504;8.248;2023-06-24T14:45:41;5.03;;;3.57;;
20776;SDS011;10548;47.504;8.248;2023-06-24T14:48:08;6.23;;;3.43;;
20776;SDS011;10548;47.504;8.248;2023-06-24T14:50:35;4.10;;;3.20;;
20776;SDS011;10548;47.504;8.248;2023-06-24T14:53:03;3.40;;;3.10;;
20776;SDS011;10548;47.504;8.248;2023-06-24T14:55:30;4.63;;;3.40;;
20776;SDS011;10548;47.504;8.248;2023-06-24T14:57:57;3.83;;;2.90;;
20776;SDS011;10548;47.504;8.248;2023-06-24T15:00:25;4.57;;;3.73;;
20776;SDS011;10548;47.504;8.248;2023-06-24T15:02:52;3.73;;;3.40;;